createdAt,value
2023-02-12T00:00:39.793Z,5.19
2023-02-12T00:01:29.866Z,5.16
2023-02-12T00:02:17.997Z,5.15
2023-02-12T00:03:05.358Z,5.18
2023-02-12T00:03:52.805Z,5.17
2023-02-12T00:04:39.936Z,5.24
2023-02-12T00:05:26.951Z,5.22
2023-02-12T00:06:16.123Z,5.20
2023-02-12T00:07:03.555Z,5.26
2023-02-12T00:07:50.788Z,5.23
2023-02-12T00:08:39.144Z,5.16
2023-02-12T00:09:26.196Z,5.20
2023-02-12T00:10:13.638Z,5.22
2023-02-12T00:11:00.595Z,5.28
2023-02-12T00:11:48.059Z,5.26
2023-02-12T00:12:35.309Z,5.17
2023-02-12T00:13:22.583Z,5.08
2023-02-12T00:14:09.934Z,5.18
2023-02-12T00:14:57.023Z,5.22
2023-02-12T00:15:44.463Z,5.27
2023-02-12T00:16:31.617Z,5.23
2023-02-12T00:17:18.746Z,5.17
2023-02-12T00:18:05.809Z,5.07
2023-02-12T00:18:54.144Z,5.14
2023-02-12T00:19:41.318Z,5.20
2023-02-12T00:20:28.310Z,5.28
2023-02-12T00:21:15.410Z,5.25
2023-02-12T00:22:02.351Z,5.21
2023-02-12T00:22:49.357Z,5.14
2023-02-12T00:23:37.147Z,5.12
2023-02-12T00:24:24.175Z,5.24
2023-02-12T00:25:11.550Z,5.18
2023-02-12T00:25:58.676Z,5.11
2023-02-12T00:26:45.868Z,5.05
2023-02-12T00:27:36.575Z,5.02
2023-02-12T00:28:23.431Z,5.07
2023-02-12T00:29:11.168Z,5.18
2023-02-12T00:29:58.202Z,5.15
2023-02-12T00:30:45.672Z,5.14
2023-02-12T00:31:32.851Z,5.07
2023-02-12T00:32:20.378Z,5.06
2023-02-12T00:33:07.616Z,5.04
2023-02-12T00:33:54.670Z,5.04
2023-02-12T00:34:41.677Z,5.11
2023-02-12T00:35:28.724Z,5.18
2023-02-12T00:36:20.389Z,5.16
2023-02-12T00:37:07.587Z,5.14
2023-02-12T00:37:54.678Z,5.15
2023-02-12T00:38:41.760Z,5.08
2023-02-12T00:39:29.194Z,5.04
2023-02-12T00:40:16.433Z,4.92
2023-02-12T00:41:03.616Z,4.93
2023-02-12T00:41:50.774Z,4.90
2023-02-12T00:42:37.800Z,5.03
2023-02-12T00:43:24.852Z,5.10
2023-02-12T00:44:12.093Z,4.93
2023-02-12T00:44:59.140Z,4.89
2023-02-12T00:45:46.806Z,4.88
2023-02-12T00:46:34.081Z,4.85
2023-02-12T00:47:21.179Z,4.85
2023-02-12T00:48:08.293Z,4.83
2023-02-12T00:48:55.418Z,4.83
2023-02-12T00:49:42.416Z,4.86
2023-02-12T00:50:31.914Z,4.90
2023-02-12T00:51:19.179Z,4.86
2023-02-12T00:52:06.291Z,4.80
2023-02-12T00:52:53.552Z,4.78
2023-02-12T00:53:40.851Z,4.82
2023-02-12T00:54:28.906Z,4.83
2023-02-12T00:55:16.005Z,4.81
2023-02-12T00:56:03.070Z,4.78
2023-02-12T00:56:50.700Z,4.86
2023-02-12T00:57:37.785Z,4.88
2023-02-12T00:58:25.962Z,4.85
2023-02-12T00:59:13.009Z,4.92
2023-02-12T01:00:00.172Z,4.83
2023-02-12T01:00:47.581Z,4.90
2023-02-12T01:01:34.742Z,4.87
2023-02-12T01:02:21.998Z,4.86
2023-02-12T01:03:09.239Z,4.81
2023-02-12T01:03:56.438Z,4.77
2023-02-12T01:04:43.620Z,4.79
2023-02-12T01:05:31.272Z,4.85
2023-02-12T01:06:18.375Z,4.81
2023-02-12T01:07:05.398Z,4.80
2023-02-12T01:07:54.144Z,4.77
2023-02-12T01:08:41.305Z,4.70
2023-02-12T01:09:28.299Z,4.80
2023-02-12T01:10:15.477Z,4.85
2023-02-12T01:11:04.454Z,4.82
2023-02-12T01:11:54.139Z,4.80
2023-02-12T01:12:41.157Z,4.80
2023-02-12T01:13:28.717Z,4.81
2023-02-12T01:14:18.832Z,4.87
2023-02-12T01:15:06.260Z,4.83
2023-02-12T01:16:08.742Z,4.76
2023-02-12T01:16:56.211Z,4.75
2023-02-12T01:17:43.249Z,4.63
2023-02-12T01:18:30.465Z,4.65
2023-02-12T01:19:17.631Z,4.65
2023-02-12T01:20:07.429Z,4.59
2023-02-12T01:20:54.384Z,4.60
2023-02-12T01:21:41.515Z,4.67
2023-02-12T01:22:28.517Z,4.60
2023-02-12T01:23:15.618Z,4.62
2023-02-12T01:24:03.095Z,4.59
2023-02-12T01:24:50.048Z,4.52
2023-02-12T01:25:39.039Z,4.56
2023-02-12T01:26:26.799Z,4.51
2023-02-12T01:27:13.756Z,4.48
2023-02-12T01:28:00.681Z,4.37
2023-02-12T01:29:09.063Z,4.37
2023-02-12T01:29:56.007Z,4.44
2023-02-12T01:30:43.041Z,4.46
2023-02-12T01:31:34.131Z,4.50
2023-02-12T01:32:21.469Z,4.54
2023-02-12T01:33:08.498Z,4.53
2023-02-12T01:33:57.883Z,4.52
2023-02-12T01:34:44.902Z,4.46
2023-02-12T01:35:31.935Z,4.52
2023-02-12T01:36:19.141Z,4.45
2023-02-12T01:37:06.163Z,4.45
2023-02-12T01:37:53.250Z,4.42
2023-02-12T01:38:40.508Z,4.40
2023-02-12T01:39:27.518Z,4.60
2023-02-12T01:40:16.356Z,4.58
2023-02-12T01:41:11.319Z,4.54
2023-02-12T01:41:58.264Z,4.53
2023-02-12T01:42:45.220Z,4.58
2023-02-12T01:43:32.341Z,4.52
2023-02-12T01:44:24.634Z,4.45
2023-02-12T01:45:14.435Z,4.49
2023-02-12T01:46:02.342Z,4.42
2023-02-12T01:46:58.577Z,4.45
2023-02-12T01:47:46.020Z,4.42
2023-02-12T01:48:43.161Z,4.43
2023-02-12T01:49:36.102Z,4.44
2023-02-12T01:50:23.415Z,4.45
2023-02-12T01:51:13.545Z,4.50
2023-02-12T01:52:07.533Z,4.45
2023-02-12T01:52:57.819Z,4.36
2023-02-12T01:53:48.865Z,4.38
2023-02-12T01:54:36.347Z,4.38
2023-02-12T01:55:23.337Z,4.34
2023-02-12T01:56:10.498Z,4.32
2023-02-12T01:56:57.744Z,4.41
2023-02-12T01:57:46.258Z,4.32
2023-02-12T01:58:39.213Z,4.37
2023-02-12T01:59:26.398Z,4.38
2023-02-12T02:00:22.750Z,4.37
2023-02-12T02:01:14.150Z,4.31
2023-02-12T02:02:01.639Z,4.41
2023-02-12T02:02:55.909Z,4.41
2023-02-12T02:03:45.317Z,4.38
2023-02-12T02:04:37.414Z,4.32
2023-02-12T02:05:31.954Z,4.34
2023-02-12T02:06:28.752Z,4.24
2023-02-12T02:07:15.824Z,4.21
2023-02-12T02:08:02.842Z,4.28
2023-02-12T02:08:50.694Z,4.16
2023-02-12T02:09:38.707Z,4.27
2023-02-12T02:10:25.846Z,4.29
2023-02-12T02:11:31.359Z,4.22
2023-02-12T02:12:36.908Z,4.15
2023-02-12T02:13:42.426Z,4.06
2023-02-12T02:14:35.551Z,4.12
2023-02-12T02:15:22.560Z,4.19
2023-02-12T02:16:21.707Z,4.14
2023-02-12T02:17:15.494Z,4.11
2023-02-12T02:18:12.851Z,4.04
2023-02-12T02:19:03.751Z,4.11
2023-02-12T02:20:25.789Z,4.17
2023-02-12T02:21:40.830Z,4.17
2023-02-12T02:22:32.216Z,4.15
2023-02-12T02:23:54.365Z,4.15
2023-02-12T02:24:58.835Z,4.23
2023-02-12T02:26:08.978Z,4.18
2023-02-12T02:27:07.789Z,4.21
2023-02-12T02:28:29.447Z,4.15
2023-02-12T02:29:47.553Z,4.21
2023-02-12T02:31:05.598Z,4.20
2023-02-12T02:32:14.298Z,4.23
2023-02-12T02:33:11.719Z,4.38
2023-02-12T02:34:12.836Z,4.23
2023-02-12T02:35:24.411Z,4.22
2023-02-12T02:36:35.990Z,4.36
2023-02-12T02:37:35.022Z,4.19
2023-02-12T02:38:32.286Z,4.21
2023-02-12T02:39:39.294Z,4.19
2023-02-12T02:40:32.764Z,4.23
2023-02-12T02:41:38.553Z,4.14
2023-02-12T02:42:37.659Z,4.16
2023-02-12T02:43:30.436Z,4.24
2023-02-12T02:44:27.197Z,4.21
2023-02-12T02:45:18.975Z,4.21
2023-02-12T02:46:10.341Z,4.20
2023-02-12T02:46:59.330Z,4.27
2023-02-12T02:47:53.509Z,4.26
2023-02-12T02:48:45.902Z,4.25
2023-02-12T02:49:37.996Z,4.23
2023-02-12T02:50:26.574Z,4.39
2023-02-12T02:51:20.473Z,4.39
2023-02-12T02:52:11.854Z,4.38
2023-02-12T02:53:15.248Z,4.25
2023-02-12T02:54:12.578Z,4.24
2023-02-12T02:55:04.630Z,4.20
2023-02-12T02:55:55.168Z,4.17
2023-02-12T02:56:45.055Z,4.27
2023-02-12T02:57:53.373Z,4.24
2023-02-12T02:58:44.022Z,4.32
2023-02-12T02:59:33.193Z,4.19
2023-02-12T03:00:27.136Z,4.17
2023-02-12T03:01:26.723Z,4.15
2023-02-12T03:02:29.710Z,4.12
2023-02-12T03:03:25.530Z,4.09
2023-02-12T03:04:18.027Z,4.11
2023-02-12T03:05:10.628Z,4.08
2023-02-12T03:06:04.352Z,4.08
2023-02-12T03:06:55.537Z,4.08
2023-02-12T03:07:46.963Z,4.01
2023-02-12T03:08:40.949Z,3.95
2023-02-12T03:09:52.896Z,3.89
2023-02-12T03:10:46.469Z,3.96
2023-02-12T03:11:34.393Z,3.88
2023-02-12T03:12:29.360Z,3.84
2023-02-12T03:13:23.560Z,3.82
2023-02-12T03:14:13.414Z,3.91
2023-02-12T03:15:12.555Z,3.85
2023-02-12T03:16:11.807Z,3.84
2023-02-12T03:17:13.193Z,3.78
2023-02-12T03:18:01.969Z,3.75
2023-02-12T03:18:59.236Z,3.75
2023-02-12T03:19:57.383Z,3.79
2023-02-12T03:20:51.810Z,3.77
2023-02-12T03:21:46.026Z,3.76
2023-02-12T03:22:37.022Z,3.81
2023-02-12T03:23:27.224Z,3.73
2023-02-12T03:24:24.151Z,3.77
2023-02-12T03:25:15.994Z,3.82
2023-02-12T03:26:10.748Z,3.82
2023-02-12T03:27:33.480Z,3.72
2023-02-12T03:28:28.650Z,3.72
2023-02-12T03:29:17.561Z,3.63
2023-02-12T03:30:05.178Z,3.63
2023-02-12T03:31:06.951Z,3.66
2023-02-12T03:32:30.823Z,3.72
2023-02-12T03:33:23.277Z,3.65
2023-02-12T03:34:39.268Z,3.73
2023-02-12T03:35:33.187Z,3.79
2023-02-12T03:36:34.892Z,3.79
2023-02-12T03:37:27.874Z,3.86
2023-02-12T03:38:27.294Z,3.93
2023-02-12T03:39:31.540Z,3.95
2023-02-12T03:40:33.650Z,3.92
2023-02-12T03:41:36.046Z,4.00
2023-02-12T03:42:53.602Z,4.03
2023-02-12T03:44:00.736Z,3.97
2023-02-12T03:44:57.708Z,3.93
2023-02-12T03:45:47.821Z,3.94
2023-02-12T03:46:43.154Z,3.95
2023-02-12T03:48:00.906Z,3.95
2023-02-12T03:48:51.008Z,3.92
2023-02-12T03:50:03.664Z,4.03
2023-02-12T03:51:04.875Z,4.01
2023-02-12T03:51:56.366Z,3.81
2023-02-12T03:52:43.948Z,3.84
2023-02-12T03:53:31.750Z,3.89
2023-02-12T03:54:20.578Z,3.95
2023-02-12T03:55:08.543Z,3.96
2023-02-12T03:56:01.148Z,3.98
2023-02-12T03:57:00.262Z,3.97
2023-02-12T03:57:51.712Z,3.95
2023-02-12T03:58:39.414Z,4.00
2023-02-12T03:59:27.090Z,3.98
2023-02-12T04:00:19.375Z,3.98
2023-02-12T04:01:06.505Z,3.98
2023-02-12T04:01:55.263Z,4.01
2023-02-12T04:02:43.462Z,3.99
2023-02-12T04:03:32.088Z,3.94
2023-02-12T04:04:19.475Z,3.96
2023-02-12T04:05:07.672Z,3.92
2023-02-12T04:05:55.003Z,3.94
2023-02-12T04:06:42.618Z,3.94
2023-02-12T04:07:29.698Z,3.96
2023-02-12T04:08:16.690Z,4.02
2023-02-12T04:09:09.210Z,4.01
2023-02-12T04:09:57.726Z,3.87
2023-02-12T04:10:52.425Z,3.85
2023-02-12T04:12:15.020Z,3.81
2023-02-12T04:13:17.627Z,4.00
2023-02-12T04:14:10.602Z,4.04
2023-02-12T04:15:29.962Z,3.97
2023-02-12T04:16:19.767Z,3.87
2023-02-12T04:17:14.872Z,3.86
2023-02-12T04:18:10.694Z,3.89
2023-02-12T04:18:57.902Z,3.83
2023-02-12T04:20:06.108Z,3.78
2023-02-12T04:21:24.232Z,3.88
2023-02-12T04:22:30.383Z,3.89
2023-02-12T04:23:44.254Z,3.84
2023-02-12T04:24:40.254Z,4.00
2023-02-12T04:26:04.808Z,4.00
2023-02-12T04:27:17.166Z,3.93
2023-02-12T04:28:44.578Z,3.84
2023-02-12T04:29:52.550Z,3.73
2023-02-12T04:30:46.126Z,3.79
2023-02-12T04:31:56.888Z,3.72
2023-02-12T04:32:49.530Z,3.71
2023-02-12T04:33:43.022Z,3.65
2023-02-12T04:34:45.431Z,3.55
2023-02-12T04:35:47.248Z,3.61
2023-02-12T04:36:37.798Z,3.53
2023-02-12T04:37:27.001Z,3.50
2023-02-12T04:38:23.568Z,3.50
2023-02-12T04:39:15.625Z,3.51
2023-02-12T04:40:05.632Z,3.49
2023-02-12T04:40:52.708Z,3.47
2023-02-12T04:41:40.035Z,3.44
2023-02-12T04:42:27.211Z,3.47
2023-02-12T04:43:14.258Z,3.48
2023-02-12T04:44:24.120Z,3.44
2023-02-12T04:45:12.541Z,3.45
2023-02-12T04:45:59.541Z,3.44
2023-02-12T04:46:46.540Z,3.41
2023-02-12T04:47:33.596Z,3.46
2023-02-12T04:48:20.587Z,3.54
2023-02-12T04:49:09.596Z,3.56
2023-02-12T04:49:56.584Z,3.58
2023-02-12T04:50:44.458Z,3.54
2023-02-12T04:51:31.546Z,3.56
2023-02-12T04:52:18.504Z,3.50
2023-02-12T04:53:11.555Z,3.48
2023-02-12T04:53:58.572Z,3.50
2023-02-12T04:54:45.593Z,3.44
2023-02-12T04:55:32.657Z,3.54
2023-02-12T04:56:19.675Z,3.54
2023-02-12T04:57:06.706Z,3.55
2023-02-12T04:57:53.806Z,3.55
2023-02-12T04:58:41.905Z,3.54
2023-02-12T04:59:28.985Z,3.53
2023-02-12T05:00:16.549Z,3.50
2023-02-12T05:01:06.905Z,3.52
2023-02-12T05:01:53.900Z,3.46
2023-02-12T05:02:41.244Z,3.55
2023-02-12T05:03:28.302Z,3.56
2023-02-12T05:04:17.061Z,3.57
2023-02-12T05:05:05.015Z,3.60
2023-02-12T05:05:55.181Z,3.61
2023-02-12T05:06:43.583Z,3.56
2023-02-12T05:07:30.686Z,3.55
2023-02-12T05:08:17.652Z,3.61
2023-02-12T05:09:05.756Z,3.57
2023-02-12T05:09:52.894Z,3.69
2023-02-12T05:10:39.830Z,3.66
2023-02-12T05:11:26.866Z,3.77
2023-02-12T05:12:13.901Z,3.71
2023-02-12T05:13:00.970Z,3.71
2023-02-12T05:13:51.870Z,3.79
2023-02-12T05:14:38.900Z,3.83
2023-02-12T05:15:25.921Z,3.87
2023-02-12T05:16:13.044Z,3.81
2023-02-12T05:17:00.171Z,3.80
2023-02-12T05:17:47.267Z,3.84
2023-02-12T05:18:35.317Z,3.83
2023-02-12T05:19:22.387Z,3.85
2023-02-12T05:20:10.553Z,3.87
2023-02-12T05:21:01.803Z,3.92
2023-02-12T05:21:51.812Z,3.87
2023-02-12T05:22:39.007Z,3.90
2023-02-12T05:23:32.554Z,3.86
2023-02-12T05:24:19.560Z,3.84
2023-02-12T05:25:06.757Z,3.93
2023-02-12T05:25:54.155Z,3.93
2023-02-12T05:26:41.517Z,3.97
2023-02-12T05:27:28.528Z,3.94
2023-02-12T05:28:15.549Z,3.95
2023-02-12T05:29:03.801Z,3.96
2023-02-12T05:29:50.925Z,3.96
2023-02-12T05:30:38.486Z,4.02
2023-02-12T05:31:25.776Z,4.11
2023-02-12T05:32:12.910Z,4.06
2023-02-12T05:32:59.918Z,4.03
2023-02-12T05:33:48.022Z,3.97
2023-02-12T05:34:35.510Z,3.99
2023-02-12T05:35:22.497Z,4.00
2023-02-12T05:36:15.056Z,4.04
2023-02-12T05:37:02.237Z,4.08
2023-02-12T05:37:49.304Z,4.03
2023-02-12T05:38:36.340Z,3.98
2023-02-12T05:39:23.336Z,4.00
2023-02-12T05:40:10.947Z,3.92
2023-02-12T05:41:18.513Z,3.89
2023-02-12T05:42:05.660Z,3.80
2023-02-12T05:42:52.674Z,3.85
2023-02-12T05:43:39.771Z,3.87
2023-02-12T05:44:26.815Z,3.81
2023-02-12T05:45:16.176Z,3.73
2023-02-12T05:46:04.567Z,3.72
2023-02-12T05:46:52.107Z,3.67
2023-02-12T05:47:39.191Z,3.68
2023-02-12T05:48:26.230Z,3.68
2023-02-12T05:49:13.216Z,3.67
2023-02-12T05:50:00.175Z,3.66
2023-02-12T05:50:47.108Z,3.65
2023-02-12T05:51:34.107Z,3.60
2023-02-12T05:52:21.153Z,3.51
2023-02-12T05:53:08.417Z,3.55
2023-02-12T05:54:00.594Z,3.47
2023-02-12T05:54:50.608Z,3.45
2023-02-12T05:55:38.875Z,3.45
2023-02-12T05:56:28.817Z,3.42
2023-02-12T05:57:15.756Z,3.39
2023-02-12T05:58:02.733Z,3.40
2023-02-12T05:58:54.360Z,3.41
2023-02-12T05:59:41.390Z,3.49
2023-02-12T06:00:28.473Z,3.44
2023-02-12T06:01:30.853Z,3.40
2023-02-12T06:02:17.798Z,3.37
2023-02-12T06:03:04.785Z,3.38
2023-02-12T06:03:55.120Z,3.27
2023-02-12T06:04:42.190Z,3.32
2023-02-12T06:05:29.186Z,3.39
2023-02-12T06:06:16.349Z,3.26
2023-02-12T06:07:03.301Z,3.23
2023-02-12T06:07:51.873Z,3.21
2023-02-12T06:08:39.424Z,3.11
2023-02-12T06:09:26.657Z,3.09
2023-02-12T06:10:13.586Z,3.15
2023-02-12T06:11:02.781Z,3.18
2023-02-12T06:11:49.814Z,3.04
2023-02-12T06:12:36.794Z,3.04
2023-02-12T06:13:23.771Z,2.99
2023-02-12T06:14:14.072Z,3.01
2023-02-12T06:15:01.183Z,3.04
2023-02-12T06:15:48.215Z,3.06
2023-02-12T06:16:36.212Z,3.03
2023-02-12T06:17:23.228Z,3.03
2023-02-12T06:18:10.257Z,3.02
2023-02-12T06:18:57.588Z,3.04
2023-02-12T06:19:44.623Z,2.96
2023-02-12T06:20:31.663Z,2.97
2023-02-12T06:21:21.181Z,2.97
2023-02-12T06:22:08.173Z,2.90
2023-02-12T06:22:55.194Z,2.90
2023-02-12T06:23:42.257Z,2.92
2023-02-12T06:24:29.386Z,2.90
2023-02-12T06:25:16.515Z,2.91
2023-02-12T06:26:03.531Z,2.94
2023-02-12T06:26:54.276Z,2.92
2023-02-12T06:27:41.398Z,2.89
2023-02-12T06:28:28.444Z,2.91
2023-02-12T06:29:18.489Z,2.84
2023-02-12T06:30:10.553Z,2.83
2023-02-12T06:30:57.804Z,2.92
2023-02-12T06:31:45.174Z,2.96
2023-02-12T06:32:32.219Z,2.91
2023-02-12T06:33:19.308Z,2.92
2023-02-12T06:34:09.380Z,2.87
2023-02-12T06:34:56.554Z,2.86
2023-02-12T06:35:43.555Z,2.84
2023-02-12T06:36:30.602Z,2.85
2023-02-12T06:37:17.663Z,2.82
2023-02-12T06:38:04.940Z,2.77
2023-02-12T06:38:54.986Z,2.76
2023-02-12T06:39:42.019Z,2.65
2023-02-12T06:40:29.228Z,2.66
2023-02-12T06:41:16.345Z,2.78
2023-02-12T06:42:03.395Z,2.84
2023-02-12T06:42:52.658Z,2.91
2023-02-12T06:43:39.666Z,2.97
2023-02-12T06:44:26.657Z,2.93
2023-02-12T06:45:13.670Z,2.83
2023-02-12T06:46:02.053Z,2.73
2023-02-12T06:46:49.174Z,2.71
2023-02-12T06:47:36.236Z,2.73
2023-02-12T06:48:23.219Z,2.76
2023-02-12T06:49:12.880Z,2.87
2023-02-12T06:49:59.981Z,2.98
2023-02-12T06:50:46.979Z,3.02
2023-02-12T06:51:34.023Z,3.04
2023-02-12T06:52:21.861Z,3.02
2023-02-12T06:53:08.962Z,2.96
2023-02-12T06:53:56.607Z,2.93
2023-02-12T06:54:43.625Z,2.92
2023-02-12T06:55:30.662Z,2.99
2023-02-12T06:56:18.710Z,2.99
2023-02-12T06:57:05.998Z,2.99
2023-02-12T06:57:53.152Z,3.00
2023-02-12T06:58:43.738Z,2.98
2023-02-12T06:59:30.875Z,3.00
2023-02-12T07:00:18.561Z,3.09
2023-02-12T07:01:13.969Z,3.13
2023-02-12T07:02:01.070Z,3.26
2023-02-12T07:02:54.035Z,3.26
2023-02-12T07:03:41.920Z,3.19
2023-02-12T07:04:28.927Z,3.22
2023-02-12T07:05:15.867Z,3.37
2023-02-12T07:06:04.316Z,3.42
2023-02-12T07:06:53.344Z,3.44
2023-02-12T07:07:40.353Z,3.47
2023-02-12T07:08:27.341Z,3.51
2023-02-12T07:09:14.350Z,3.59
2023-02-12T07:10:01.425Z,3.50
2023-02-12T07:10:52.500Z,3.57
2023-02-12T07:11:39.620Z,3.70
2023-02-12T07:12:26.586Z,3.73
2023-02-12T07:13:13.548Z,3.64
2023-02-12T07:14:00.593Z,3.63
2023-02-12T07:14:51.514Z,3.57
2023-02-12T07:15:41.460Z,3.64
2023-02-12T07:16:28.843Z,3.73
2023-02-12T07:17:15.886Z,3.84
2023-02-12T07:18:02.966Z,3.76
2023-02-12T07:18:50.226Z,3.84
2023-02-12T07:19:37.472Z,3.79
2023-02-12T07:20:24.878Z,3.81
2023-02-12T07:21:13.623Z,3.85
2023-02-12T07:22:00.613Z,3.88
2023-02-12T07:22:47.635Z,3.86
2023-02-12T07:23:35.233Z,3.81
2023-02-12T07:24:22.339Z,3.86
2023-02-12T07:25:09.553Z,3.93
2023-02-12T07:25:58.047Z,4.01
2023-02-12T07:26:45.461Z,4.04
2023-02-12T07:27:32.558Z,4.03
2023-02-12T07:28:19.641Z,4.03
2023-02-12T07:29:07.428Z,4.01
2023-02-12T07:29:54.434Z,3.98
2023-02-12T07:30:42.749Z,4.00
2023-02-12T07:31:30.079Z,4.07
2023-02-12T07:32:17.150Z,4.08
2023-02-12T07:33:04.343Z,4.11
2023-02-12T07:33:55.907Z,4.07
2023-02-12T07:34:44.206Z,4.07
2023-02-12T07:35:31.618Z,4.09
2023-02-12T07:36:20.301Z,4.16
2023-02-12T07:37:08.653Z,4.22
2023-02-12T07:37:55.870Z,4.23
2023-02-12T07:38:43.523Z,4.30
2023-02-12T07:39:30.917Z,4.25
2023-02-12T07:40:18.385Z,4.30
2023-02-12T07:41:23.412Z,4.35
2023-02-12T07:42:10.715Z,4.36
2023-02-12T07:43:01.316Z,4.32
2023-02-12T07:43:49.108Z,4.31
2023-02-12T07:44:36.621Z,4.45
2023-02-12T07:45:24.427Z,4.52
2023-02-12T07:46:17.473Z,4.58
2023-02-12T07:47:05.786Z,4.58
2023-02-12T07:47:52.896Z,4.62
2023-02-12T07:48:40.453Z,4.66
2023-02-12T07:49:27.551Z,4.68
2023-02-12T07:50:14.886Z,4.67
2023-02-12T07:51:09.659Z,4.70
2023-02-12T07:51:57.117Z,4.68
2023-02-12T07:52:44.281Z,4.72
2023-02-12T07:53:31.332Z,4.72
2023-02-12T07:54:18.613Z,4.73
2023-02-12T07:55:06.677Z,4.69
2023-02-12T07:55:54.195Z,4.75
2023-02-12T07:56:42.900Z,4.75
2023-02-12T07:57:29.994Z,4.76
2023-02-12T07:58:17.225Z,4.80
2023-02-12T07:59:06.378Z,4.85
2023-02-12T07:59:53.406Z,4.87
2023-02-12T08:00:43.430Z,4.98
2023-02-12T08:01:38.399Z,5.00
2023-02-12T08:02:28.888Z,5.00
2023-02-12T08:03:16.282Z,4.98
2023-02-12T08:04:06.391Z,4.93
2023-02-12T08:04:58.568Z,4.94
2023-02-12T08:05:46.012Z,4.99
2023-02-12T08:06:35.635Z,5.01
2023-02-12T08:07:22.662Z,5.11
2023-02-12T08:08:09.701Z,5.11
2023-02-12T08:08:59.446Z,5.10
2023-02-12T08:09:46.380Z,5.13
2023-02-12T08:10:33.578Z,5.17
2023-02-12T08:11:20.919Z,5.09
2023-02-12T08:12:08.164Z,5.15
2023-02-12T08:12:55.249Z,5.16
2023-02-12T08:13:42.449Z,5.24
2023-02-12T08:14:29.656Z,5.29
2023-02-12T08:15:16.774Z,5.33
2023-02-12T08:16:07.103Z,5.28
2023-02-12T08:16:54.219Z,5.34
2023-02-12T08:17:43.809Z,5.35
2023-02-12T08:18:32.078Z,5.31
2023-02-12T08:19:22.714Z,5.29
2023-02-12T08:20:13.245Z,5.34
2023-02-12T08:21:05.239Z,5.38
2023-02-12T08:21:53.498Z,5.36
2023-02-12T08:22:40.450Z,5.36
2023-02-12T08:23:27.644Z,5.45
2023-02-12T08:24:14.674Z,5.44
2023-02-12T08:25:01.963Z,5.39
2023-02-12T08:26:00.724Z,5.41
2023-02-12T08:26:59.742Z,5.48
2023-02-12T08:27:48.336Z,5.59
2023-02-12T08:28:42.614Z,5.56
2023-02-12T08:29:31.427Z,5.58
2023-02-12T08:30:26.336Z,5.57
2023-02-12T08:31:22.826Z,5.60
2023-02-12T08:32:14.788Z,5.59
2023-02-12T08:33:03.412Z,5.57
2023-02-12T08:33:59.198Z,5.56
2023-02-12T08:34:51.665Z,5.68
2023-02-12T08:35:54.654Z,5.73
2023-02-12T08:36:47.751Z,5.78
2023-02-12T08:37:41.787Z,5.83
2023-02-12T08:38:32.996Z,5.88
2023-02-12T08:39:22.412Z,5.88
2023-02-12T08:40:19.950Z,5.84
2023-02-12T08:41:15.412Z,5.90
2023-02-12T08:42:07.426Z,5.95
2023-02-12T08:42:57.208Z,5.93
2023-02-12T08:43:51.130Z,5.90
2023-02-12T08:44:50.347Z,5.97
2023-02-12T08:45:45.868Z,6.02
2023-02-12T08:46:37.308Z,6.03
2023-02-12T08:47:25.474Z,6.04
2023-02-12T08:48:15.676Z,6.08
2023-02-12T08:49:06.003Z,6.08
2023-02-12T08:49:57.342Z,6.04
2023-02-12T08:50:52.031Z,6.11
2023-02-12T08:51:47.442Z,6.09
2023-02-12T08:52:37.351Z,6.10
2023-02-12T08:53:24.766Z,6.12
2023-02-12T08:54:14.818Z,6.24
2023-02-12T08:55:02.311Z,6.33
2023-02-12T08:55:50.747Z,6.32
2023-02-12T08:56:38.228Z,6.25
2023-02-12T08:57:25.318Z,6.31
2023-02-12T08:58:12.381Z,6.40
2023-02-12T08:59:00.150Z,6.37
2023-02-12T08:59:49.397Z,6.42
2023-02-12T09:00:38.859Z,6.41
2023-02-12T09:01:29.040Z,6.41
2023-02-12T09:02:16.147Z,6.45
2023-02-12T09:03:03.388Z,6.52
2023-02-12T09:03:50.969Z,6.52
2023-02-12T09:04:38.123Z,6.57
2023-02-12T09:05:25.365Z,6.58
2023-02-12T09:06:12.792Z,6.59
2023-02-12T09:07:00.086Z,6.61
2023-02-12T09:07:47.429Z,6.65
2023-02-12T09:08:34.469Z,6.71
2023-02-12T09:09:42.583Z,6.78
2023-02-12T09:10:29.677Z,6.84
2023-02-12T09:11:39.367Z,6.84
2023-02-12T09:12:26.913Z,6.86
2023-02-12T09:13:15.504Z,6.85
2023-02-12T09:14:08.666Z,6.87
2023-02-12T09:14:55.771Z,6.90
2023-02-12T09:15:45.149Z,6.96
2023-02-12T09:16:35.622Z,7.05
2023-02-12T09:17:27.683Z,7.13
2023-02-12T09:18:15.161Z,7.10
2023-02-12T09:19:02.388Z,7.17
2023-02-12T09:19:49.518Z,7.23
2023-02-12T09:20:40.230Z,7.28
2023-02-12T09:21:27.047Z,7.33
2023-02-12T09:22:14.087Z,7.36
2023-02-12T09:23:01.211Z,7.39
2023-02-12T09:23:49.053Z,7.39
2023-02-12T09:24:37.944Z,7.37
2023-02-12T09:25:25.388Z,7.41
2023-02-12T09:26:15.548Z,7.39
2023-02-12T09:27:02.639Z,7.33
2023-02-12T09:27:49.689Z,7.40
2023-02-12T09:28:37.201Z,7.44
2023-02-12T09:29:24.441Z,7.41
2023-02-12T09:30:12.088Z,7.36
2023-02-12T09:31:45.693Z,7.42
2023-02-12T09:32:32.818Z,7.47
2023-02-12T09:33:19.837Z,7.50
2023-02-12T09:34:07.829Z,7.46
2023-02-12T09:34:54.967Z,7.49
2023-02-12T09:35:42.029Z,7.48
2023-02-12T09:36:29.783Z,7.47
2023-02-12T09:37:16.792Z,7.52
2023-02-12T09:38:04.644Z,7.54
2023-02-12T09:38:54.705Z,7.60
2023-02-12T09:39:41.797Z,7.68
2023-02-12T09:40:36.738Z,7.68
2023-02-12T09:41:38.592Z,7.74
2023-02-12T09:42:32.634Z,7.67
2023-02-12T09:43:31.673Z,7.73
2023-02-12T09:45:03.212Z,7.78
2023-02-12T09:46:04.189Z,7.78
2023-02-12T09:47:00.987Z,7.71
2023-02-12T09:47:56.100Z,7.65
2023-02-12T09:48:57.369Z,7.62
2023-02-12T09:50:03.240Z,7.69
2023-02-12T09:50:55.451Z,7.63
2023-02-12T09:51:44.974Z,7.68
2023-02-12T09:52:32.177Z,7.73
2023-02-12T09:53:22.517Z,7.73
2023-02-12T09:54:17.789Z,7.75
2023-02-12T09:55:05.509Z,7.80
2023-02-12T09:55:55.668Z,7.92
2023-02-12T09:56:55.112Z,7.98
2023-02-12T09:57:45.431Z,8.00
2023-02-12T09:58:53.462Z,8.03
2023-02-12T09:59:52.129Z,7.98
2023-02-12T10:00:39.445Z,8.03
2023-02-12T10:01:29.704Z,8.05
2023-02-12T10:02:18.590Z,8.11
2023-02-12T10:03:15.329Z,8.09
2023-02-12T10:04:02.590Z,8.07
2023-02-12T10:05:00.551Z,8.06
2023-02-12T10:05:52.030Z,8.03
2023-02-12T10:06:53.131Z,8.00
2023-02-12T10:07:54.411Z,8.00
2023-02-12T10:09:07.775Z,8.08
2023-02-12T10:10:20.297Z,8.10
2023-02-12T10:11:28.984Z,8.11
2023-02-12T10:12:24.791Z,8.16
2023-02-12T10:13:20.653Z,8.27
2023-02-12T10:14:33.112Z,8.30
2023-02-12T10:15:45.707Z,8.31
2023-02-12T10:17:08.802Z,8.32
2023-02-12T10:18:18.814Z,8.22
2023-02-12T10:19:24.313Z,8.23
2023-02-12T10:20:26.232Z,8.30
2023-02-12T10:21:31.787Z,8.38
2023-02-12T10:22:32.036Z,8.49
2023-02-12T10:23:57.613Z,8.48
2023-02-12T10:25:03.306Z,8.55
2023-02-12T10:25:54.470Z,8.56
2023-02-12T10:26:47.902Z,8.62
2023-02-12T10:27:49.840Z,8.59
2023-02-12T10:28:41.523Z,8.59
2023-02-12T10:29:35.482Z,8.59
2023-02-12T10:30:32.117Z,8.54
2023-02-12T10:31:33.354Z,8.50
2023-02-12T10:32:38.112Z,8.52
2023-02-12T10:33:30.320Z,8.64
2023-02-12T10:34:26.479Z,8.76
2023-02-12T10:35:18.311Z,8.87
2023-02-12T10:36:17.447Z,8.87
2023-02-12T10:37:33.066Z,8.91
2023-02-12T10:38:23.091Z,8.87
2023-02-12T10:39:52.654Z,8.92
2023-02-12T10:40:43.714Z,8.94
2023-02-12T10:41:31.289Z,9.04
2023-02-12T10:42:41.908Z,9.16
2023-02-12T10:43:29.268Z,9.38
2023-02-12T10:44:19.030Z,9.45
2023-02-12T10:45:07.121Z,9.51
2023-02-12T10:45:54.396Z,9.49
2023-02-12T10:46:42.473Z,9.53
2023-02-12T10:47:29.448Z,9.63
2023-02-12T10:48:22.387Z,9.67
2023-02-12T10:49:13.403Z,9.69
2023-02-12T10:50:02.324Z,9.68
2023-02-12T10:50:52.620Z,9.71
2023-02-12T10:51:39.618Z,9.60
2023-02-12T10:53:01.126Z,9.66
2023-02-12T10:53:48.845Z,9.42
2023-02-12T10:54:38.980Z,9.55
2023-02-12T10:55:33.368Z,9.62
2023-02-12T10:56:24.796Z,9.66
2023-02-12T10:57:19.148Z,9.77
2023-02-12T10:58:19.296Z,9.77
2023-02-12T10:59:06.492Z,9.90
2023-02-12T10:59:57.516Z,10.00
2023-02-12T11:00:44.528Z,9.87
2023-02-12T11:01:31.598Z,9.87
2023-02-12T11:02:27.786Z,10.06
2023-02-12T11:03:15.506Z,10.19
2023-02-12T11:04:27.747Z,10.23
2023-02-12T11:05:26.411Z,10.35
2023-02-12T11:06:16.550Z,10.20
2023-02-12T11:07:06.778Z,10.04
2023-02-12T11:07:53.828Z,10.10
2023-02-12T11:08:41.605Z,10.05
2023-02-12T11:09:35.484Z,10.01
2023-02-12T11:10:32.825Z,9.89
2023-02-12T11:11:32.473Z,9.90
2023-02-12T11:12:23.641Z,9.67
2023-02-12T11:13:28.866Z,9.74
2023-02-12T11:14:21.882Z,9.75
2023-02-12T11:15:17.264Z,9.82
2023-02-12T11:16:04.735Z,9.64
2023-02-12T11:16:54.259Z,9.68
2023-02-12T11:17:43.992Z,9.68
2023-02-12T11:18:37.597Z,9.68
2023-02-12T11:19:29.826Z,9.56
2023-02-12T11:20:16.845Z,9.66
2023-02-12T11:21:08.064Z,9.82
2023-02-12T11:22:19.114Z,9.78
2023-02-12T11:23:06.940Z,9.79
2023-02-12T11:23:53.929Z,9.85
2023-02-12T11:24:41.076Z,9.89
2023-02-12T11:25:36.721Z,9.82
2023-02-12T11:26:28.993Z,9.72
2023-02-12T11:27:15.969Z,9.74
2023-02-12T11:28:16.005Z,9.71